createdAt,value
2017-04-29T04:00:55.639Z,0
2017-04-29T04:01:21.110Z,0
2017-04-29T04:01:46.590Z,0
2017-04-29T04:02:12.085Z,0
2017-04-29T04:02:37.510Z,5
2017-04-29T04:03:03.008Z,5
2017-04-29T04:03:28.404Z,5
2017-04-29T04:03:53.876Z,5
2017-04-29T04:04:19.329Z,5
2017-04-29T04:04:44.819Z,5
2017-04-29T04:05:10.247Z,5
2017-04-29T04:05:35.747Z,5
2017-04-29T04:06:01.201Z,5
2017-04-29T04:06:26.621Z,5
2017-04-29T04:06:52.116Z,5
2017-04-29T04:07:17.612Z,5
2017-04-29T04:07:43.046Z,5
2017-04-29T04:08:08.501Z,5
2017-04-29T04:08:34.018Z,5
2017-04-29T04:08:59.438Z,5
2017-04-29T04:09:24.999Z,5
2017-04-29T04:09:50.532Z,5
2017-04-29T04:10:16.041Z,5
2017-04-29T04:10:41.479Z,5
2017-04-29T04:11:07.011Z,5
2017-04-29T04:11:32.438Z,5
2017-04-29T04:11:57.871Z,10
2017-04-29T04:12:23.346Z,10
2017-04-29T04:12:48.898Z,10
2017-04-29T04:13:14.309Z,10
2017-04-29T04:13:39.785Z,10
2017-04-29T04:14:05.236Z,10
2017-04-29T04:14:30.683Z,10
2017-04-29T04:14:56.167Z,10
2017-04-29T04:15:21.693Z,10
2017-04-29T04:15:47.113Z,10
2017-04-29T04:16:12.578Z,10
2017-04-29T04:16:38.070Z,10
2017-04-29T04:17:03.556Z,10
2017-04-29T04:17:28.992Z,10
2017-04-29T04:17:54.456Z,10
2017-04-29T04:18:19.930Z,10
2017-04-29T04:18:45.397Z,10
2017-04-29T04:19:10.875Z,15
2017-04-29T04:19:36.368Z,15
2017-04-29T04:20:01.847Z,15
2017-04-29T04:20:27.295Z,15
2017-04-29T04:20:52.762Z,15
2017-04-29T04:21:18.198Z,15
2017-04-29T04:21:43.698Z,15
2017-04-29T04:22:09.155Z,15
2017-04-29T04:22:34.647Z,15
2017-04-29T04:23:00.079Z,15
2017-04-29T04:23:25.539Z,15
2017-04-29T04:23:51.001Z,15
2017-04-29T04:24:16.502Z,15
2017-04-29T04:24:41.982Z,15
2017-04-29T04:25:07.479Z,20
2017-04-29T04:25:32.922Z,20
2017-04-29T04:25:58.389Z,20
2017-04-29T04:26:23.854Z,20
2017-04-29T04:26:49.347Z,20
2017-04-29T04:27:14.817Z,20
2017-04-29T04:27:40.274Z,20
2017-04-29T04:28:05.769Z,20
2017-04-29T04:28:31.208Z,20
2017-04-29T04:28:56.661Z,20
2017-04-29T04:29:22.104Z,20
2017-04-29T04:29:47.598Z,20
2017-04-29T04:30:13.060Z,20
2017-04-29T04:30:38.513Z,20
2017-04-29T04:31:03.979Z,20
2017-04-29T04:31:29.403Z,25
2017-04-29T04:31:54.859Z,25
2017-04-29T04:32:20.289Z,25
2017-04-29T04:32:45.780Z,25
2017-04-29T04:33:11.219Z,25
2017-04-29T04:33:36.668Z,25
2017-04-29T04:34:02.169Z,25
2017-04-29T04:34:27.636Z,25
2017-04-29T04:34:53.137Z,25
2017-04-29T04:35:18.554Z,25
2017-04-29T04:35:44.041Z,25
2017-04-29T04:36:09.513Z,25
2017-04-29T04:36:34.967Z,25
2017-04-29T04:37:00.429Z,25
2017-04-29T04:37:25.836Z,25
2017-04-29T04:37:51.339Z,30
2017-04-29T04:38:16.796Z,30
2017-04-29T04:38:42.299Z,30
2017-04-29T04:39:07.746Z,30
2017-04-29T04:39:33.279Z,30
2017-04-29T04:39:58.684Z,30
2017-04-29T04:40:24.169Z,30
2017-04-29T04:40:49.613Z,30
2017-04-29T04:41:15.071Z,30
2017-04-29T04:41:40.515Z,30
2017-04-29T04:42:05.985Z,30
2017-04-29T04:42:31.504Z,30
2017-04-29T04:42:56.967Z,35
2017-04-29T04:43:22.372Z,35
2017-04-29T04:43:47.831Z,35
2017-04-29T04:44:13.334Z,35
2017-04-29T04:44:38.740Z,35
2017-04-29T04:45:04.211Z,35
2017-04-29T04:45:29.712Z,40
2017-04-29T04:45:55.091Z,40
2017-04-29T04:46:20.578Z,40
2017-04-29T04:46:46.101Z,40
2017-04-29T04:47:11.598Z,40
2017-04-29T04:47:37.074Z,40
2017-04-29T04:48:02.593Z,40
2017-04-29T04:48:28.109Z,40
2017-04-29T04:48:53.557Z,45
2017-04-29T04:49:19.008Z,45
2017-04-29T04:49:44.467Z,45
2017-04-29T04:50:09.935Z,45
2017-04-29T04:50:35.466Z,45
2017-04-29T04:51:00.996Z,45
2017-04-29T04:51:26.406Z,45
2017-04-29T04:51:51.860Z,45
2017-04-29T04:52:17.313Z,45
2017-04-29T04:52:42.832Z,45
2017-04-29T04:53:08.363Z,45
2017-04-29T04:53:33.849Z,45
2017-04-29T04:53:59.330Z,45
2017-04-29T04:54:24.807Z,45
2017-04-29T04:54:50.338Z,50
2017-04-29T04:55:15.796Z,50
2017-04-29T04:55:41.269Z,50
2017-04-29T04:56:06.777Z,50
2017-04-29T04:56:32.253Z,50
2017-04-29T04:56:57.792Z,50
2017-04-29T04:57:23.210Z,50
2017-04-29T04:57:48.718Z,50
2017-04-29T04:58:14.112Z,50
2017-04-29T04:58:39.617Z,50
2017-04-29T04:59:05.142Z,50
2017-04-29T04:59:30.508Z,55
2017-04-29T04:59:56.034Z,55
2017-04-29T05:00:21.523Z,55
2017-04-29T05:00:47.530Z,55
2017-04-29T05:01:13.048Z,55
2017-04-29T05:01:38.463Z,55
2017-04-29T05:02:04.042Z,60
2017-04-29T05:02:29.346Z,60
2017-04-29T05:02:54.855Z,60
2017-04-29T05:03:20.295Z,60
2017-04-29T05:03:45.757Z,60
2017-04-29T05:04:11.314Z,60
2017-04-29T05:04:36.842Z,60
2017-04-29T05:05:02.368Z,60
2017-04-29T05:05:27.817Z,60
2017-04-29T05:05:53.334Z,65
2017-04-29T05:06:18.790Z,65
2017-04-29T05:06:44.248Z,65
2017-04-29T05:07:10.308Z,65
2017-04-29T05:07:35.772Z,65
2017-04-29T05:08:01.300Z,65
2017-04-29T05:08:26.823Z,65
2017-04-29T05:08:52.206Z,65
2017-04-29T05:09:17.698Z,65
2017-04-29T05:09:43.194Z,65
2017-04-29T05:10:08.786Z,65
2017-04-29T05:10:34.655Z,65
2017-04-29T05:11:00.135Z,65
2017-04-29T05:11:25.589Z,70
2017-04-29T05:11:51.083Z,70
2017-04-29T05:12:16.537Z,70
2017-04-29T05:12:41.996Z,70
2017-04-29T05:13:07.621Z,70
2017-04-29T05:13:33.102Z,70
2017-04-29T05:13:58.610Z,70
2017-04-29T05:14:24.078Z,70
2017-04-29T05:14:49.482Z,70
2017-04-29T05:15:15.057Z,75
2017-04-29T05:15:40.440Z,75
2017-04-29T05:16:05.941Z,75
2017-04-29T05:16:31.379Z,75
2017-04-29T05:16:56.882Z,75
2017-04-29T05:17:22.322Z,75
2017-04-29T05:17:47.795Z,75
2017-04-29T05:18:13.254Z,75
2017-04-29T05:18:38.756Z,80
2017-04-29T05:19:04.218Z,80
2017-04-29T05:19:29.642Z,80
2017-04-29T05:19:55.118Z,80
2017-04-29T05:20:20.610Z,80
2017-04-29T05:20:46.136Z,80
2017-04-29T05:21:11.565Z,80
2017-04-29T05:21:37.045Z,85
2017-04-29T05:22:02.571Z,85
2017-04-29T05:22:28.014Z,85
2017-04-29T05:22:53.501Z,85
2017-04-29T05:23:18.911Z,85
2017-04-29T05:23:44.416Z,85
2017-04-29T05:24:09.890Z,90
2017-04-29T05:24:35.352Z,90
2017-04-29T05:25:00.799Z,90
2017-04-29T05:25:26.302Z,90
2017-04-29T05:25:51.807Z,90
2017-04-29T05:26:17.242Z,90
2017-04-29T05:26:42.673Z,90
2017-04-29T05:27:08.160Z,90
2017-04-29T05:27:33.658Z,90
2017-04-29T05:27:59.117Z,90
2017-04-29T05:28:24.579Z,90
2017-04-29T05:28:50.048Z,90
2017-04-29T05:29:15.534Z,95
2017-04-29T05:29:41.064Z,95
2017-04-29T05:30:06.542Z,95
2017-04-29T05:30:32.052Z,95
2017-04-29T05:30:57.548Z,95
2017-04-29T05:31:23.060Z,95
2017-04-29T05:31:48.609Z,100
2017-04-29T05:32:14.125Z,100
2017-04-29T05:32:39.567Z,100
2017-04-29T05:33:05.050Z,105
2017-04-29T05:33:30.565Z,105
2017-04-29T05:33:56.038Z,110
2017-04-29T05:34:21.531Z,110
2017-04-29T05:34:47.042Z,110
2017-04-29T05:35:12.547Z,110
2017-04-29T05:35:37.993Z,115
2017-04-29T05:36:03.471Z,115
2017-04-29T05:36:28.923Z,115
2017-04-29T05:36:54.390Z,120
2017-04-29T05:37:19.829Z,120
2017-04-29T05:37:45.320Z,120
2017-04-29T05:38:10.795Z,120
2017-04-29T05:38:36.268Z,120
2017-04-29T05:39:01.800Z,125
2017-04-29T05:39:27.198Z,125
2017-04-29T05:39:52.727Z,125
2017-04-29T05:40:18.138Z,130
2017-04-29T05:40:43.616Z,130
2017-04-29T05:41:09.091Z,135
2017-04-29T05:41:34.583Z,130
2017-04-29T05:42:00.016Z,135
2017-04-29T05:42:25.476Z,135
2017-04-29T05:42:50.952Z,135
2017-04-29T05:43:16.393Z,135
2017-04-29T05:43:41.849Z,140
2017-04-29T05:44:07.353Z,140
2017-04-29T05:44:32.903Z,140
2017-04-29T05:44:58.479Z,140
2017-04-29T05:45:23.942Z,140
2017-04-29T05:45:49.398Z,140
2017-04-29T05:46:14.878Z,140
2017-04-29T05:46:40.312Z,145
2017-04-29T05:47:05.781Z,145
2017-04-29T05:47:31.265Z,145
2017-04-29T05:47:56.754Z,145
2017-04-29T05:48:22.230Z,145
2017-04-29T05:48:47.776Z,145
2017-04-29T05:49:13.176Z,150
2017-04-29T05:49:38.657Z,150
2017-04-29T05:50:04.124Z,150
2017-04-29T05:50:29.546Z,150
2017-04-29T05:50:55.017Z,155
2017-04-29T05:51:20.526Z,155
2017-04-29T05:51:46.005Z,155
2017-04-29T05:52:11.488Z,155
2017-04-29T05:52:36.939Z,155
2017-04-29T05:53:02.455Z,155
2017-04-29T05:53:27.879Z,160
2017-04-29T05:53:53.359Z,155
2017-04-29T05:54:18.805Z,155
2017-04-29T05:54:44.288Z,160
2017-04-29T05:55:09.766Z,160
2017-04-29T05:55:35.211Z,165
2017-04-29T05:56:00.687Z,165
2017-04-29T05:56:26.167Z,170
2017-04-29T05:56:51.632Z,170
2017-04-29T05:57:17.104Z,170
2017-04-29T05:57:42.555Z,170
2017-04-29T05:58:08.021Z,170
2017-04-29T05:58:33.479Z,170
2017-04-29T05:58:58.940Z,170
2017-04-29T05:59:24.411Z,170
2017-04-29T05:59:49.874Z,175
2017-04-29T06:00:15.346Z,175
2017-04-29T06:00:40.794Z,175
2017-04-29T06:01:06.267Z,175
2017-04-29T06:01:31.744Z,175
2017-04-29T06:01:57.218Z,175
2017-04-29T06:02:22.641Z,180
2017-04-29T06:02:48.123Z,180
2017-04-29T06:03:13.557Z,180
2017-04-29T06:03:39.038Z,180
2017-04-29T06:04:04.511Z,180
2017-04-29T06:04:29.953Z,180
2017-04-29T06:04:55.462Z,185
2017-04-29T06:05:20.939Z,185
2017-04-29T06:05:46.388Z,185
2017-04-29T06:06:11.849Z,185
2017-04-29T06:06:37.292Z,185
2017-04-29T06:07:02.785Z,185
2017-04-29T06:07:28.250Z,185
2017-04-29T06:07:53.712Z,185
2017-04-29T06:08:19.201Z,185
2017-04-29T06:08:44.657Z,185
2017-04-29T06:09:10.180Z,185
2017-04-29T06:09:35.650Z,185
2017-04-29T06:10:01.129Z,185
2017-04-29T06:10:26.615Z,195
2017-04-29T06:10:52.104Z,195
2017-04-29T06:11:17.585Z,190
2017-04-29T06:11:43.088Z,195
2017-04-29T06:12:08.514Z,190
2017-04-29T06:12:34.018Z,190
2017-04-29T06:12:59.468Z,195
2017-04-29T06:13:24.926Z,195
2017-04-29T06:13:50.403Z,195
2017-04-29T06:14:15.906Z,200
2017-04-29T06:14:41.416Z,200
2017-04-29T06:15:06.895Z,200
2017-04-29T06:15:32.358Z,200
2017-04-29T06:15:57.844Z,205
2017-04-29T06:16:23.336Z,210
2017-04-29T06:16:48.853Z,210
2017-04-29T06:17:14.401Z,215
2017-04-29T06:17:39.854Z,215
2017-04-29T06:18:05.320Z,215
2017-04-29T06:18:30.822Z,215
2017-04-29T06:18:56.265Z,215
2017-04-29T06:19:21.714Z,215
2017-04-29T06:19:47.248Z,215
2017-04-29T06:20:12.726Z,215
2017-04-29T06:20:38.160Z,220
2017-04-29T06:21:03.583Z,220
2017-04-29T06:21:29.053Z,220
2017-04-29T06:21:54.497Z,220
2017-04-29T06:22:20.003Z,220
2017-04-29T06:22:45.525Z,220
2017-04-29T06:23:10.954Z,225
2017-04-29T06:23:36.416Z,225
2017-04-29T06:24:01.895Z,225
2017-04-29T06:24:27.379Z,225
2017-04-29T06:24:52.855Z,225
2017-04-29T06:25:18.380Z,220
2017-04-29T06:25:43.824Z,220
2017-04-29T06:26:09.306Z,220
2017-04-29T06:26:34.799Z,220
2017-04-29T06:27:00.271Z,220
2017-04-29T06:27:25.735Z,225
2017-04-29T06:27:51.224Z,225
2017-04-29T06:28:16.691Z,225
2017-04-29T06:28:42.212Z,225
2017-04-29T06:29:07.663Z,225
2017-04-29T06:29:33.143Z,225
2017-04-29T06:29:58.618Z,225
2017-04-29T06:30:24.104Z,225
2017-04-29T06:30:49.595Z,225
2017-04-29T06:31:15.094Z,230
2017-04-29T06:31:40.621Z,230
2017-04-29T06:32:06.084Z,230
2017-04-29T06:32:31.580Z,230
2017-04-29T06:32:57.036Z,230
2017-04-29T06:33:22.488Z,230
2017-04-29T06:33:47.959Z,230
2017-04-29T06:34:13.453Z,235
2017-04-29T06:34:38.936Z,235
2017-04-29T06:35:04.394Z,235
2017-04-29T06:35:29.921Z,235
2017-04-29T06:35:55.446Z,240
2017-04-29T06:36:20.951Z,240
2017-04-29T06:36:46.394Z,240
2017-04-29T06:37:11.868Z,240
2017-04-29T06:37:37.333Z,240
2017-04-29T06:38:02.792Z,245
2017-04-29T06:38:28.248Z,245
2017-04-29T06:38:53.724Z,245
2017-04-29T06:39:19.235Z,250
2017-04-29T06:39:44.722Z,250
2017-04-29T06:40:10.183Z,250
2017-04-29T06:40:35.615Z,250
2017-04-29T06:41:01.113Z,255
2017-04-29T06:41:26.565Z,255
2017-04-29T06:41:52.083Z,260
2017-04-29T06:42:17.589Z,260
2017-04-29T06:42:43.058Z,260
2017-04-29T06:43:08.555Z,260
2017-04-29T06:43:34.115Z,260
2017-04-29T06:43:59.608Z,260
2017-04-29T06:44:25.141Z,260
2017-04-29T06:44:50.639Z,265
2017-04-29T06:45:16.126Z,265
2017-04-29T06:45:41.613Z,265
2017-04-29T06:46:07.062Z,265
2017-04-29T06:46:32.527Z,265
2017-04-29T06:46:58.004Z,265
2017-04-29T06:47:23.479Z,265
2017-04-29T06:47:48.991Z,265
2017-04-29T06:48:14.478Z,265
2017-04-29T06:48:39.951Z,265
2017-04-29T06:49:05.426Z,265
2017-04-29T06:49:30.920Z,265
2017-04-29T06:49:56.384Z,265
2017-04-29T06:50:21.873Z,260
2017-04-29T06:50:47.405Z,260
2017-04-29T06:51:12.908Z,260
2017-04-29T06:51:38.549Z,260
2017-04-29T06:52:04.032Z,260
2017-04-29T06:52:29.476Z,260
2017-04-29T06:52:54.934Z,260
2017-04-29T06:53:20.444Z,255
2017-04-29T06:53:45.970Z,255
2017-04-29T06:54:11.428Z,255
2017-04-29T06:54:36.919Z,250
2017-04-29T06:55:02.425Z,245
2017-04-29T06:55:27.935Z,245
2017-04-29T06:55:53.408Z,245
2017-04-29T06:56:18.902Z,240
2017-04-29T06:56:44.328Z,240
2017-04-29T06:57:09.780Z,230
2017-04-29T06:57:35.260Z,225
2017-04-29T06:58:00.714Z,220
2017-04-29T06:58:26.186Z,210
2017-04-29T06:58:51.663Z,205
2017-04-29T06:59:17.139Z,205
2017-04-29T06:59:42.581Z,205
2017-04-29T07:00:08.087Z,200
2017-04-29T07:00:33.561Z,195
2017-04-29T07:00:59.100Z,190
2017-04-29T07:01:24.559Z,190
2017-04-29T07:01:50.063Z,185
2017-04-29T07:02:15.559Z,185
2017-04-29T07:02:41.076Z,185
2017-04-29T07:03:06.530Z,185
2017-04-29T07:03:32.059Z,185
2017-04-29T07:03:57.573Z,185
2017-04-29T07:04:23.064Z,185
2017-04-29T07:04:48.507Z,185
2017-04-29T07:05:13.964Z,185
2017-04-29T07:05:39.446Z,185
2017-04-29T07:06:04.898Z,185
2017-04-29T07:06:30.326Z,185
2017-04-29T07:06:55.845Z,185
2017-04-29T07:07:21.383Z,185
2017-04-29T07:07:46.810Z,190
2017-04-29T07:08:12.271Z,195
2017-04-29T07:08:37.758Z,200
2017-04-29T07:09:03.226Z,200
2017-04-29T07:09:28.670Z,210
2017-04-29T07:09:54.127Z,200
2017-04-29T07:10:19.640Z,205
2017-04-29T07:10:45.047Z,205
2017-04-29T07:11:10.545Z,210
2017-04-29T07:11:36.021Z,215
2017-04-29T07:12:01.501Z,210
2017-04-29T07:12:26.958Z,210
2017-04-29T07:12:52.404Z,210
2017-04-29T07:13:17.886Z,215
2017-04-29T07:13:43.341Z,215
2017-04-29T07:14:08.812Z,215
2017-04-29T07:14:34.313Z,215
2017-04-29T07:14:59.795Z,210
2017-04-29T07:15:25.221Z,205
2017-04-29T07:15:50.699Z,200
2017-04-29T07:16:16.169Z,210
2017-04-29T07:16:41.652Z,200
2017-04-29T07:17:07.080Z,200
2017-04-29T07:17:32.547Z,200
2017-04-29T07:17:58.023Z,200
2017-04-29T07:18:23.471Z,200
2017-04-29T07:18:48.933Z,200
2017-04-29T07:19:14.376Z,205
2017-04-29T07:19:39.854Z,205
2017-04-29T07:20:05.338Z,205
2017-04-29T07:20:30.793Z,205
2017-04-29T07:20:56.261Z,215
2017-04-29T07:21:21.719Z,220
2017-04-29T07:21:47.218Z,230
2017-04-29T07:22:12.688Z,245
2017-04-29T07:22:38.142Z,245
2017-04-29T07:23:03.596Z,255
2017-04-29T07:23:29.107Z,260
2017-04-29T07:23:54.616Z,255
2017-04-29T07:24:20.099Z,260
2017-04-29T07:24:45.600Z,265
2017-04-29T07:25:11.069Z,275
2017-04-29T07:25:36.533Z,285
2017-04-29T07:26:02.024Z,290
2017-04-29T07:26:27.475Z,300
2017-04-29T07:26:52.941Z,310
2017-04-29T07:27:18.426Z,315
2017-04-29T07:27:43.877Z,335
2017-04-29T07:28:09.326Z,335
2017-04-29T07:28:34.782Z,340
2017-04-29T07:29:00.219Z,345
2017-04-29T07:29:25.719Z,350
2017-04-29T07:29:51.220Z,355
2017-04-29T07:30:16.722Z,355
2017-04-29T07:30:42.206Z,350
2017-04-29T07:31:07.666Z,340
2017-04-29T07:31:33.165Z,340
2017-04-29T07:31:58.658Z,335
2017-04-29T07:32:24.125Z,330
2017-04-29T07:32:49.587Z,325
2017-04-29T07:33:15.125Z,320
2017-04-29T07:33:40.572Z,320
2017-04-29T07:34:06.080Z,325
2017-04-29T07:34:31.484Z,330
2017-04-29T07:34:56.969Z,335
2017-04-29T07:35:22.426Z,340
2017-04-29T07:35:47.871Z,335
2017-04-29T07:36:13.349Z,330
2017-04-29T07:36:38.816Z,320
2017-04-29T07:37:04.304Z,305
2017-04-29T07:37:29.839Z,285
2017-04-29T07:37:55.278Z,275
2017-04-29T07:38:20.706Z,280
2017-04-29T07:38:46.223Z,295
2017-04-29T07:39:11.717Z,295
2017-04-29T07:39:37.190Z,290
2017-04-29T07:40:02.718Z,285
2017-04-29T07:40:28.133Z,280
2017-04-29T07:40:53.613Z,275
2017-04-29T07:41:19.063Z,275
2017-04-29T07:41:44.513Z,280
2017-04-29T07:42:10.012Z,285
2017-04-29T07:42:35.475Z,290
2017-04-29T07:43:00.939Z,295
2017-04-29T07:43:26.403Z,300
2017-04-29T07:43:51.873Z,310
2017-04-29T07:44:17.322Z,310
2017-04-29T07:44:42.811Z,320
2017-04-29T07:45:08.242Z,320
2017-04-29T07:45:33.744Z,325
2017-04-29T07:45:59.255Z,330
2017-04-29T07:46:24.680Z,335
2017-04-29T07:46:50.170Z,335
2017-04-29T07:47:15.675Z,340
2017-04-29T07:47:41.109Z,345
2017-04-29T07:48:06.598Z,340
2017-04-29T07:48:32.066Z,335
2017-04-29T07:48:57.524Z,335
2017-04-29T07:49:23.030Z,330
2017-04-29T07:49:48.451Z,325
2017-04-29T07:50:13.917Z,330
2017-04-29T07:50:39.380Z,335
2017-04-29T07:51:04.859Z,330
2017-04-29T07:51:30.297Z,335
2017-04-29T07:51:55.773Z,340
2017-04-29T07:52:21.276Z,340
2017-04-29T07:52:46.737Z,340
2017-04-29T07:53:12.168Z,340
2017-04-29T07:53:37.660Z,340
2017-04-29T07:54:03.094Z,345
2017-04-29T07:54:28.566Z,350
2017-04-29T07:54:54.057Z,355
2017-04-29T07:55:19.497Z,350
2017-04-29T07:55:44.952Z,365
2017-04-29T07:56:10.423Z,365
2017-04-29T07:56:35.898Z,365
2017-04-29T07:57:01.385Z,370
2017-04-29T07:57:26.826Z,380
2017-04-29T07:57:52.321Z,390
2017-04-29T07:58:17.800Z,390
2017-04-29T07:58:43.275Z,395
2017-04-29T07:59:08.752Z,400
2017-04-29T07:59:34.253Z,390
2017-04-29T07:59:59.744Z,380
2017-04-29T08:00:25.226Z,370
2017-04-29T08:00:50.697Z,360
2017-04-29T08:01:16.188Z,350
2017-04-29T08:01:41.669Z,345
2017-04-29T08:02:07.123Z,340
2017-04-29T08:02:32.604Z,330
2017-04-29T08:02:58.070Z,330
2017-04-29T08:03:23.561Z,330
2017-04-29T08:03:49.025Z,330
2017-04-29T08:04:14.461Z,330
2017-04-29T08:04:39.971Z,330
2017-04-29T08:05:05.470Z,330
2017-04-29T08:05:30.954Z,335
2017-04-29T08:05:56.447Z,340
2017-04-29T08:06:21.897Z,340
2017-04-29T08:06:47.368Z,340
2017-04-29T08:07:12.854Z,340
2017-04-29T08:07:38.327Z,330
2017-04-29T08:08:03.789Z,315
2017-04-29T08:08:29.246Z,295
2017-04-29T08:08:54.737Z,280
2017-04-29T08:09:20.195Z,275
2017-04-29T08:09:45.689Z,270
2017-04-29T08:10:11.125Z,270
2017-04-29T08:10:36.569Z,270
2017-04-29T08:11:02.067Z,280
2017-04-29T08:11:27.520Z,295
2017-04-29T08:11:53.002Z,300
2017-04-29T08:12:18.480Z,300
2017-04-29T08:12:43.940Z,310
2017-04-29T08:13:09.448Z,315
2017-04-29T08:13:34.938Z,315
2017-04-29T08:14:00.407Z,320
2017-04-29T08:14:25.888Z,325
2017-04-29T08:14:51.376Z,330
2017-04-29T08:15:16.851Z,345
2017-04-29T08:15:42.359Z,360
2017-04-29T08:16:07.871Z,370
2017-04-29T08:16:33.344Z,380
2017-04-29T08:16:58.809Z,390
2017-04-29T08:17:24.267Z,400
2017-04-29T08:17:49.727Z,410
2017-04-29T08:18:15.209Z,420
2017-04-29T08:18:40.671Z,430
2017-04-29T08:19:06.130Z,435
2017-04-29T08:19:31.632Z,450
2017-04-29T08:19:57.107Z,460
2017-04-29T08:20:22.655Z,455
2017-04-29T08:20:48.161Z,445
2017-04-29T08:21:13.682Z,435
2017-04-29T08:21:39.228Z,415
2017-04-29T08:22:04.618Z,400
2017-04-29T08:22:30.134Z,390
2017-04-29T08:22:55.640Z,395
2017-04-29T08:23:21.079Z,395
2017-04-29T08:23:46.579Z,390
2017-04-29T08:24:12.090Z,360
2017-04-29T08:24:37.518Z,335
2017-04-29T08:25:03.022Z,305
2017-04-29T08:25:28.528Z,285
2017-04-29T08:25:54.015Z,275
2017-04-29T08:26:19.465Z,265
2017-04-29T08:26:45.026Z,255
2017-04-29T08:27:10.524Z,240
2017-04-29T08:27:35.995Z,235
2017-04-29T08:28:01.518Z,225
2017-04-29T08:28:27.298Z,225
2017-04-29T08:28:53.097Z,220
2017-04-29T08:29:18.577Z,210
2017-04-29T08:29:43.915Z,205
2017-04-29T08:30:09.427Z,205
2017-04-29T08:30:34.863Z,200
2017-04-29T08:31:00.327Z,200
2017-04-29T08:31:25.862Z,200
2017-04-29T08:31:51.341Z,195
2017-04-29T08:32:16.809Z,205
2017-04-29T08:32:42.265Z,210
2017-04-29T08:33:07.731Z,225
2017-04-29T08:33:33.209Z,240
2017-04-29T08:33:59.043Z,255
2017-04-29T08:34:24.674Z,270
2017-04-29T08:34:50.207Z,280
2017-04-29T08:35:15.624Z,295
2017-04-29T08:35:41.062Z,310
2017-04-29T08:36:06.530Z,320
2017-04-29T08:36:31.986Z,335
2017-04-29T08:36:57.520Z,345
2017-04-29T08:37:22.960Z,365
2017-04-29T08:37:48.413Z,375
2017-04-29T08:38:13.889Z,390
2017-04-29T08:38:39.387Z,405
2017-04-29T08:39:04.807Z,415
2017-04-29T08:39:30.263Z,425
2017-04-29T08:39:55.715Z,430
2017-04-29T08:40:21.192Z,435
2017-04-29T08:40:46.721Z,450
2017-04-29T08:41:12.166Z,455
2017-04-29T08:41:37.675Z,460
2017-04-29T08:42:03.138Z,465
2017-04-29T08:42:28.558Z,465
2017-04-29T08:42:54.077Z,460
2017-04-29T08:43:19.638Z,460
2017-04-29T08:43:45.124Z,460
2017-04-29T08:44:10.576Z,460
2017-04-29T08:44:36.055Z,460
2017-04-29T08:45:01.477Z,465
2017-04-29T08:45:26.984Z,465
2017-04-29T08:45:52.561Z,465
2017-04-29T08:46:18.005Z,465
2017-04-29T08:46:43.481Z,465
2017-04-29T08:47:08.928Z,475
2017-04-29T08:47:34.445Z,470
2017-04-29T08:47:59.877Z,475
2017-04-29T08:48:25.369Z,480
2017-04-29T08:48:50.860Z,480
2017-04-29T08:49:16.429Z,480
2017-04-29T08:49:41.886Z,480
2017-04-29T08:50:07.353Z,485
2017-04-29T08:50:32.831Z,485
2017-04-29T08:50:58.314Z,485
2017-04-29T08:51:23.774Z,485
2017-04-29T08:51:49.241Z,490
2017-04-29T08:52:14.684Z,495
2017-04-29T08:52:40.204Z,495
2017-04-29T08:53:05.670Z,485
2017-04-29T08:53:31.123Z,475
2017-04-29T08:53:56.628Z,460
2017-04-29T08:54:22.098Z,445
2017-04-29T08:54:47.554Z,425
2017-04-29T08:55:13.026Z,415
2017-04-29T08:55:38.485Z,405
2017-04-29T08:56:03.951Z,400
2017-04-29T08:56:29.391Z,400
2017-04-29T08:56:54.881Z,400
2017-04-29T08:57:20.326Z,395
2017-04-29T08:57:45.780Z,380
2017-04-29T08:58:11.242Z,365
2017-04-29T08:58:36.731Z,360
2017-04-29T08:59:02.245Z,370
2017-04-29T08:59:27.689Z,370
2017-04-29T08:59:53.154Z,365
2017-04-29T09:00:18.626Z,365
2017-04-29T09:00:44.119Z,360
2017-04-29T09:01:09.568Z,350
2017-04-29T09:01:35.039Z,340
2017-04-29T09:02:00.535Z,335
2017-04-29T09:02:25.988Z,330
2017-04-29T09:02:51.493Z,330
2017-04-29T09:03:16.974Z,335
2017-04-29T09:03:42.443Z,340
2017-04-29T09:04:07.881Z,340
2017-04-29T09:04:33.353Z,345
2017-04-29T09:04:58.852Z,345
2017-04-29T09:05:24.387Z,345
2017-04-29T09:05:49.807Z,350
2017-04-29T09:06:15.306Z,350
2017-04-29T09:06:40.731Z,355
2017-04-29T09:07:06.206Z,360
2017-04-29T09:07:31.671Z,370
2017-04-29T09:07:57.142Z,375
2017-04-29T09:08:22.603Z,380
2017-04-29T09:08:48.068Z,385
2017-04-29T09:09:13.529Z,385
2017-04-29T09:09:38.984Z,380
2017-04-29T09:10:04.446Z,375
2017-04-29T09:10:29.917Z,370
2017-04-29T09:10:55.359Z,375
2017-04-29T09:11:20.820Z,380
2017-04-29T09:11:46.282Z,390
2017-04-29T09:12:11.748Z,390
2017-04-29T09:12:37.212Z,400
2017-04-29T09:13:02.666Z,405
2017-04-29T09:13:28.122Z,415
2017-04-29T09:13:53.598Z,420
2017-04-29T09:14:19.054Z,425
2017-04-29T09:14:44.524Z,430
2017-04-29T09:15:09.986Z,435
2017-04-29T09:15:35.440Z,440
2017-04-29T09:16:00.970Z,440
2017-04-29T09:16:26.361Z,440
2017-04-29T09:16:51.840Z,435
2017-04-29T09:17:17.281Z,425
2017-04-29T09:17:42.870Z,420
2017-04-29T09:18:08.263Z,415
2017-04-29T09:18:33.746Z,410
2017-04-29T09:18:59.218Z,400
2017-04-29T09:19:24.652Z,385
2017-04-29T09:19:50.131Z,380
2017-04-29T09:20:15.581Z,375
2017-04-29T09:20:41.037Z,380
2017-04-29T09:21:06.515Z,380
2017-04-29T09:21:31.979Z,380
2017-04-29T09:21:57.471Z,375
2017-04-29T09:22:22.943Z,370
2017-04-29T09:22:48.429Z,370
2017-04-29T09:23:13.933Z,365
2017-04-29T09:23:39.390Z,365
2017-04-29T09:24:04.850Z,355
2017-04-29T09:24:30.323Z,345
2017-04-29T09:24:55.813Z,340
2017-04-29T09:25:21.279Z,330
2017-04-29T09:25:46.779Z,320
2017-04-29T09:26:12.215Z,305
2017-04-29T09:26:37.709Z,305
2017-04-29T09:27:03.189Z,305
2017-04-29T09:27:28.686Z,305
2017-04-29T09:27:54.138Z,305
2017-04-29T09:28:19.597Z,305
2017-04-29T09:28:45.055Z,305
2017-04-29T09:29:10.526Z,290
2017-04-29T09:29:35.964Z,280
2017-04-29T09:30:01.462Z,275
2017-04-29T09:30:26.973Z,260
2017-04-29T09:30:52.478Z,255
2017-04-29T09:31:17.944Z,245
2017-04-29T09:31:43.432Z,235
2017-04-29T09:32:08.904Z,235
2017-04-29T09:32:34.409Z,230
2017-04-29T09:32:59.927Z,225
2017-04-29T09:33:25.407Z,225
2017-04-29T09:33:50.868Z,220
2017-04-29T09:34:16.396Z,220
2017-04-29T09:34:41.869Z,225
2017-04-29T09:35:07.319Z,215
2017-04-29T09:35:32.788Z,220
2017-04-29T09:35:58.230Z,220
2017-04-29T09:36:23.718Z,220
2017-04-29T09:36:49.522Z,225
2017-04-29T09:37:14.944Z,225
2017-04-29T09:37:40.430Z,225
2017-04-29T09:38:05.861Z,220
2017-04-29T09:38:31.365Z,225
2017-04-29T09:38:56.767Z,225
2017-04-29T09:39:22.277Z,225
2017-04-29T09:39:47.704Z,225
2017-04-29T09:40:13.179Z,230
2017-04-29T09:40:38.627Z,230
2017-04-29T09:41:04.125Z,230
2017-04-29T09:41:29.690Z,230
2017-04-29T09:41:55.166Z,235
2017-04-29T09:42:20.605Z,245
2017-04-29T09:42:46.036Z,240
2017-04-29T09:43:11.558Z,245
2017-04-29T09:43:36.986Z,240
2017-04-29T09:44:02.473Z,240
2017-04-29T09:44:27.968Z,240
2017-04-29T09:44:53.422Z,245
2017-04-29T09:45:18.842Z,245
2017-04-29T09:45:44.281Z,250
2017-04-29T09:46:09.807Z,255
2017-04-29T09:46:35.267Z,255
2017-04-29T09:47:00.732Z,255
2017-04-29T09:47:26.210Z,255
2017-04-29T09:47:51.857Z,260
2017-04-29T09:48:17.370Z,270
2017-04-29T09:48:42.788Z,280
2017-04-29T09:49:08.245Z,280
2017-04-29T09:49:33.767Z,290
2017-04-29T09:49:59.181Z,295
2017-04-29T09:50:24.671Z,300
2017-04-29T09:50:50.134Z,310
2017-04-29T09:51:15.660Z,320
2017-04-29T09:51:41.119Z,330
2017-04-29T09:52:06.559Z,340
2017-04-29T09:52:32.046Z,350
2017-04-29T09:52:57.521Z,360
2017-04-29T09:53:22.970Z,380
2017-04-29T09:53:48.422Z,400
2017-04-29T09:54:13.884Z,435
2017-04-29T09:54:39.296Z,460
2017-04-29T09:55:04.800Z,490